sensor_id;sensor_type;location;lat;lon;timestamp;P1;durP1;ratioP1;P2;durP2;ratioP2
3022;SDS011;1521;53.584;9.938;2022-07-06T00:01:28;5.20;;;2.47;;
3022;SDS011;1521;53.584;9.938;2022-07-06T00:03:54;4.70;;;1.70;;
3022;SDS011;1521;53.584;9.938;2022-07-06T00:06:22;2.33;;;1.70;;
3022;SDS011;1521;53.584;9.938;2022-07-06T00:08:48;11.40;;;2.80;;
3022;SDS011;1521;53.584;9.938;2022-07-06T00:11:14;3.07;;;1.90;;
3022;SDS011;1521;53.584;9.938;2022-07-06T00:13:40;4.67;;;1.60;;
3022;SDS011;1521;53.584;9.938;2022-07-06T00:16:07;4.50;;;2.60;;
3022;SDS011;1521;53.584;9.938;2022-07-06T00:18:32;8.07;;;2.73;;
3022;SDS011;1521;53.584;9.938;2022-07-06T00:20:58;6.20;;;2.67;;
3022;SDS011;1521;53.584;9.938;2022-07-06T00:23:24;5.77;;;1.80;;
3022;SDS011;1521;53.584;9.938;2022-07-06T00:25:49;4.90;;;2.03;;
3022;SDS011;1521;53.584;9.938;2022-07-06T00:28:15;5.77;;;1.90;;
3022;SDS011;1521;53.584;9.938;2022-07-06T00:30:41;4.50;;;1.67;;
3022;SDS011;1521;53.584;9.938;2022-07-06T00:33:07;7.83;;;2.33;;
3022;SDS011;1521;53.584;9.938;2022-07-06T00:35:33;13.50;;;7.10;;
3022;SDS011;1521;53.584;9.938;2022-07-06T00:37:58;7.60;;;2.10;;
3022;SDS011;1521;53.584;9.938;2022-07-06T00:40:24;3.43;;;1.70;;
3022;SDS011;1521;53.584;9.938;2022-07-06T00:42:50;5.13;;;1.90;;
3022;SDS011;1521;53.584;9.938;2022-07-06T00:45:16;4.60;;;1.90;;
3022;SDS011;1521;53.584;9.938;2022-07-06T00:47:42;5.53;;;2.00;;
3022;SDS011;1521;53.584;9.938;2022-07-06T00:50:09;5.43;;;2.00;;
3022;SDS011;1521;53.584;9.938;2022-07-06T00:52:39;8.03;;;2.20;;
3022;SDS011;1521;53.584;9.938;2022-07-06T00:55:12;4.13;;;1.80;;
3022;SDS011;1521;53.584;9.938;2022-07-06T00:57:39;4.63;;;1.70;;
3022;SDS011;1521;53.584;9.938;2022-07-06T01:00:07;3.73;;;1.97;;
3022;SDS011;1521;53.584;9.938;2022-07-06T01:02:35;9.97;;;2.10;;
3022;SDS011;1521;53.584;9.938;2022-07-06T01:05:03;4.93;;;2.13;;
3022;SDS011;1521;53.584;9.938;2022-07-06T01:07:29;6.80;;;2.77;;
3022;SDS011;1521;53.584;9.938;2022-07-06T01:09:55;4.63;;;2.00;;
3022;SDS011;1521;53.584;9.938;2022-07-06T01:12:21;2.63;;;2.00;;
3022;SDS011;1521;53.584;9.938;2022-07-06T01:14:47;4.40;;;2.20;;
3022;SDS011;1521;53.584;9.938;2022-07-06T01:17:14;5.40;;;2.20;;
3022;SDS011;1521;53.584;9.938;2022-07-06T01:19:41;3.30;;;2.07;;
3022;SDS011;1521;53.584;9.938;2022-07-06T01:22:06;7.73;;;2.00;;
3022;SDS011;1521;53.584;9.938;2022-07-06T01:24:36;5.10;;;2.07;;
3022;SDS011;1521;53.584;9.938;2022-07-06T01:27:03;3.83;;;2.13;;
3022;SDS011;1521;53.584;9.938;2022-07-06T01:29:29;5.93;;;2.00;;
3022;SDS011;1521;53.584;9.938;2022-07-06T01:31:55;4.53;;;1.73;;
3022;SDS011;1521;53.584;9.938;2022-07-06T01:34:21;4.77;;;2.17;;
3022;SDS011;1521;53.584;9.938;2022-07-06T01:36:46;5.80;;;2.10;;
3022;SDS011;1521;53.584;9.938;2022-07-06T01:39:12;4.60;;;1.87;;
3022;SDS011;1521;53.584;9.938;2022-07-06T01:41:38;7.30;;;2.37;;
3022;SDS011;1521;53.584;9.938;2022-07-06T01:44:04;5.50;;;2.30;;
3022;SDS011;1521;53.584;9.938;2022-07-06T01:46:30;5.77;;;2.20;;
3022;SDS011;1521;53.584;9.938;2022-07-06T01:48:56;5.63;;;2.10;;
3022;SDS011;1521;53.584;9.938;2022-07-06T01:51:22;5.63;;;2.23;;
3022;SDS011;1521;53.584;9.938;2022-07-06T01:53:49;4.30;;;2.00;;
3022;SDS011;1521;53.584;9.938;2022-07-06T01:56:16;6.53;;;2.20;;
3022;SDS011;1521;53.584;9.938;2022-07-06T01:58:42;12.87;;;2.50;;
3022;SDS011;1521;53.584;9.938;2022-07-06T02:01:17;12.90;;;2.43;;
3022;SDS011;1521;53.584;9.938;2022-07-06T02:03:44;8.13;;;2.20;;
3022;SDS011;1521;53.584;9.938;2022-07-06T02:06:10;2.40;;;2.10;;
3022;SDS011;1521;53.584;9.938;2022-07-06T02:08:40;3.90;;;1.97;;
3022;SDS011;1521;53.584;9.938;2022-07-06T02:11:06;5.17;;;2.33;;
3022;SDS011;1521;53.584;9.938;2022-07-06T02:13:33;8.67;;;2.23;;
3022;SDS011;1521;53.584;9.938;2022-07-06T02:15:59;5.10;;;2.40;;
3022;SDS011;1521;53.584;9.938;2022-07-06T02:18:25;5.80;;;2.13;;
3022;SDS011;1521;53.584;9.938;2022-07-06T02:20:50;6.60;;;2.33;;
3022;SDS011;1521;53.584;9.938;2022-07-06T02:23:16;10.27;;;2.20;;
3022;SDS011;1521;53.584;9.938;2022-07-06T02:25:42;3.00;;;1.97;;
3022;SDS011;1521;53.584;9.938;2022-07-06T02:28:07;7.20;;;1.93;;
3022;SDS011;1521;53.584;9.938;2022-07-06T02:30:33;3.73;;;1.90;;
3022;SDS011;1521;53.584;9.938;2022-07-06T02:32:59;4.80;;;2.10;;
3022;SDS011;1521;53.584;9.938;2022-07-06T02:35:24;5.90;;;2.30;;
3022;SDS011;1521;53.584;9.938;2022-07-06T02:37:50;4.60;;;2.40;;
3022;SDS011;1521;53.584;9.938;2022-07-06T02:40:16;8.70;;;2.10;;
3022;SDS011;1521;53.584;9.938;2022-07-06T02:42:41;8.30;;;2.50;;
3022;SDS011;1521;53.584;9.938;2022-07-06T02:45:07;5.80;;;2.47;;
3022;SDS011;1521;53.584;9.938;2022-07-06T02:47:33;5.33;;;2.30;;
3022;SDS011;1521;53.584;9.938;2022-07-06T02:49:59;4.20;;;2.23;;
3022;SDS011;1521;53.584;9.938;2022-07-06T02:52:24;10.33;;;2.20;;
3022;SDS011;1521;53.584;9.938;2022-07-06T02:54:50;4.40;;;1.90;;
3022;SDS011;1521;53.584;9.938;2022-07-06T02:57:16;7.93;;;2.60;;
3022;SDS011;1521;53.584;9.938;2022-07-06T02:59:42;3.90;;;2.20;;
3022;SDS011;1521;53.584;9.938;2022-07-06T03:02:07;8.20;;;2.40;;
3022;SDS011;1521;53.584;9.938;2022-07-06T03:04:33;4.83;;;2.63;;
3022;SDS011;1521;53.584;9.938;2022-07-06T03:06:59;3.27;;;2.90;;
3022;SDS011;1521;53.584;9.938;2022-07-06T03:09:25;7.43;;;3.20;;
3022;SDS011;1521;53.584;9.938;2022-07-06T03:11:51;3.43;;;3.13;;
3022;SDS011;1521;53.584;9.938;2022-07-06T03:14:17;10.30;;;3.30;;
3022;SDS011;1521;53.584;9.938;2022-07-06T03:16:43;6.87;;;2.93;;
3022;SDS011;1521;53.584;9.938;2022-07-06T03:19:08;7.63;;;2.80;;
3022;SDS011;1521;53.584;9.938;2022-07-06T03:21:34;8.77;;;2.90;;
3022;SDS011;1521;53.584;9.938;2022-07-06T03:24:00;4.83;;;2.73;;
3022;SDS011;1521;53.584;9.938;2022-07-06T03:26:25;8.77;;;3.10;;
3022;SDS011;1521;53.584;9.938;2022-07-06T03:28:51;14.10;;;2.50;;
3022;SDS011;1521;53.584;9.938;2022-07-06T03:31:16;6.77;;;2.60;;
3022;SDS011;1521;53.584;9.938;2022-07-06T03:33:42;7.27;;;2.80;;
3022;SDS011;1521;53.584;9.938;2022-07-06T03:36:08;5.10;;;2.37;;
3022;SDS011;1521;53.584;9.938;2022-07-06T03:38:34;7.30;;;2.50;;
3022;SDS011;1521;53.584;9.938;2022-07-06T03:41:00;3.93;;;2.50;;
3022;SDS011;1521;53.584;9.938;2022-07-06T03:43:26;9.10;;;2.73;;
3022;SDS011;1521;53.584;9.938;2022-07-06T03:45:51;3.63;;;2.30;;
3022;SDS011;1521;53.584;9.938;2022-07-06T03:48:17;7.30;;;2.43;;
3022;SDS011;1521;53.584;9.938;2022-07-06T03:50:43;8.57;;;2.33;;
3022;SDS011;1521;53.584;9.938;2022-07-06T03:53:08;6.50;;;2.30;;
3022;SDS011;1521;53.584;9.938;2022-07-06T03:55:34;8.60;;;2.70;;
3022;SDS011;1521;53.584;9.938;2022-07-06T03:57:59;5.23;;;2.23;;
3022;SDS011;1521;53.584;9.938;2022-07-06T04:00:25;11.13;;;2.03;;
3022;SDS011;1521;53.584;9.938;2022-07-06T04:02:51;3.70;;;2.00;;
3022;SDS011;1521;53.584;9.938;2022-07-06T04:05:16;6.93;;;2.60;;
3022;SDS011;1521;53.584;9.938;2022-07-06T04:07:46;5.10;;;1.97;;
3022;SDS011;1521;53.584;9.938;2022-07-06T04:10:14;5.37;;;1.90;;
3022;SDS011;1521;53.584;9.938;2022-07-06T04:12:43;3.20;;;1.60;;
3022;SDS011;1521;53.584;9.938;2022-07-06T04:15:10;5.60;;;1.90;;
3022;SDS011;1521;53.584;9.938;2022-07-06T04:17:37;5.00;;;2.23;;
3022;SDS011;1521;53.584;9.938;2022-07-06T04:20:18;7.13;;;2.03;;
3022;SDS011;1521;53.584;9.938;2022-07-06T04:22:48;3.40;;;1.97;;
3022;SDS011;1521;53.584;9.938;2022-07-06T04:25:14;6.67;;;2.10;;
3022;SDS011;1521;53.584;9.938;2022-07-06T04:27:40;2.87;;;2.07;;
3022;SDS011;1521;53.584;9.938;2022-07-06T04:30:07;8.77;;;2.33;;
3022;SDS011;1521;53.584;9.938;2022-07-06T04:32:33;5.00;;;2.20;;
3022;SDS011;1521;53.584;9.938;2022-07-06T04:35:01;9.60;;;2.40;;
3022;SDS011;1521;53.584;9.938;2022-07-06T04:37:28;3.33;;;1.77;;
3022;SDS011;1521;53.584;9.938;2022-07-06T04:39:53;4.70;;;1.93;;
3022;SDS011;1521;53.584;9.938;2022-07-06T04:42:19;9.30;;;2.10;;
3022;SDS011;1521;53.584;9.938;2022-07-06T04:44:44;7.43;;;2.20;;
3022;SDS011;1521;53.584;9.938;2022-07-06T04:47:11;2.00;;;1.70;;
3022;SDS011;1521;53.584;9.938;2022-07-06T04:49:37;5.17;;;1.97;;
3022;SDS011;1521;53.584;9.938;2022-07-06T04:52:02;2.83;;;1.53;;
3022;SDS011;1521;53.584;9.938;2022-07-06T04:54:28;10.03;;;1.87;;
3022;SDS011;1521;53.584;9.938;2022-07-06T04:56:54;6.60;;;1.93;;
3022;SDS011;1521;53.584;9.938;2022-07-06T04:59:20;11.43;;;2.00;;
3022;SDS011;1521;53.584;9.938;2022-07-06T05:01:45;4.47;;;1.73;;
3022;SDS011;1521;53.584;9.938;2022-07-06T05:04:11;9.43;;;1.90;;
3022;SDS011;1521;53.584;9.938;2022-07-06T05:06:36;4.60;;;1.60;;
3022;SDS011;1521;53.584;9.938;2022-07-06T05:09:02;6.30;;;1.83;;
3022;SDS011;1521;53.584;9.938;2022-07-06T05:11:28;11.70;;;2.40;;
3022;SDS011;1521;53.584;9.938;2022-07-06T05:13:53;6.07;;;1.80;;
3022;SDS011;1521;53.584;9.938;2022-07-06T05:16:19;4.60;;;2.10;;
3022;SDS011;1521;53.584;9.938;2022-07-06T05:18:45;3.07;;;1.93;;
3022;SDS011;1521;53.584;9.938;2022-07-06T05:21:11;4.00;;;1.97;;
3022;SDS011;1521;53.584;9.938;2022-07-06T05:23:37;7.77;;;2.03;;
3022;SDS011;1521;53.584;9.938;2022-07-06T05:26:03;9.30;;;2.73;;
3022;SDS011;1521;53.584;9.938;2022-07-06T05:28:28;10.73;;;2.27;;
3022;SDS011;1521;53.584;9.938;2022-07-06T05:30:54;10.23;;;2.30;;
3022;SDS011;1521;53.584;9.938;2022-07-06T05:33:19;5.90;;;1.70;;
3022;SDS011;1521;53.584;9.938;2022-07-06T05:35:45;10.13;;;2.07;;
3022;SDS011;1521;53.584;9.938;2022-07-06T05:38:11;5.90;;;2.37;;
3022;SDS011;1521;53.584;9.938;2022-07-06T05:40:37;6.70;;;2.67;;
3022;SDS011;1521;53.584;9.938;2022-07-06T05:43:02;4.30;;;2.03;;
3022;SDS011;1521;53.584;9.938;2022-07-06T05:45:28;5.83;;;2.13;;
3022;SDS011;1521;53.584;9.938;2022-07-06T05:47:53;4.47;;;2.20;;
3022;SDS011;1521;53.584;9.938;2022-07-06T05:50:38;4.70;;;2.40;;
3022;SDS011;1521;53.584;9.938;2022-07-06T05:53:04;7.47;;;2.10;;
3022;SDS011;1521;53.584;9.938;2022-07-06T05:55:30;2.10;;;1.90;;
3022;SDS011;1521;53.584;9.938;2022-07-06T05:57:56;5.43;;;2.20;;
3022;SDS011;1521;53.584;9.938;2022-07-06T06:00:22;5.20;;;1.80;;
3022;SDS011;1521;53.584;9.938;2022-07-06T06:02:49;9.23;;;1.97;;
3022;SDS011;1521;53.584;9.938;2022-07-06T06:05:15;11.13;;;1.80;;
3022;SDS011;1521;53.584;9.938;2022-07-06T06:07:41;7.93;;;1.43;;
3022;SDS011;1521;53.584;9.938;2022-07-06T06:10:09;5.03;;;1.60;;
3022;SDS011;1521;53.584;9.938;2022-07-06T06:12:37;4.97;;;1.60;;
3022;SDS011;1521;53.584;9.938;2022-07-06T06:15:03;5.27;;;1.80;;
3022;SDS011;1521;53.584;9.938;2022-07-06T06:17:30;3.20;;;1.40;;
3022;SDS011;1521;53.584;9.938;2022-07-06T06:19:56;7.80;;;1.90;;
3022;SDS011;1521;53.584;9.938;2022-07-06T06:22:22;2.80;;;1.57;;
3022;SDS011;1521;53.584;9.938;2022-07-06T06:24:48;6.13;;;2.17;;
3022;SDS011;1521;53.584;9.938;2022-07-06T06:27:13;7.67;;;2.10;;
3022;SDS011;1521;53.584;9.938;2022-07-06T06:29:39;3.83;;;1.77;;
3022;SDS011;1521;53.584;9.938;2022-07-06T06:32:06;6.83;;;1.80;;
3022;SDS011;1521;53.584;9.938;2022-07-06T06:34:32;9.90;;;1.90;;
3022;SDS011;1521;53.584;9.938;2022-07-06T06:36:58;8.40;;;1.70;;
3022;SDS011;1521;53.584;9.938;2022-07-06T06:39:23;4.10;;;1.57;;
3022;SDS011;1521;53.584;9.938;2022-07-06T06:41:49;2.37;;;1.30;;
3022;SDS011;1521;53.584;9.938;2022-07-06T06:44:14;4.60;;;2.00;;
3022;SDS011;1521;53.584;9.938;2022-07-06T06:46:40;8.97;;;1.83;;
3022;SDS011;1521;53.584;9.938;2022-07-06T06:49:06;4.80;;;1.60;;
3022;SDS011;1521;53.584;9.938;2022-07-06T06:51:32;5.70;;;1.83;;
3022;SDS011;1521;53.584;9.938;2022-07-06T06:53:58;7.13;;;1.70;;
3022;SDS011;1521;53.584;9.938;2022-07-06T06:56:24;8.37;;;2.17;;
3022;SDS011;1521;53.584;9.938;2022-07-06T06:58:50;8.87;;;2.20;;
3022;SDS011;1521;53.584;9.938;2022-07-06T07:01:15;3.80;;;1.83;;
3022;SDS011;1521;53.584;9.938;2022-07-06T07:03:41;7.37;;;1.93;;
3022;SDS011;1521;53.584;9.938;2022-07-06T07:06:06;12.60;;;2.30;;
3022;SDS011;1521;53.584;9.938;2022-07-06T07:08:32;5.53;;;1.80;;
3022;SDS011;1521;53.584;9.938;2022-07-06T07:10:58;7.10;;;2.17;;
3022;SDS011;1521;53.584;9.938;2022-07-06T07:13:23;3.87;;;1.80;;
3022;SDS011;1521;53.584;9.938;2022-07-06T07:15:49;8.13;;;1.73;;
3022;SDS011;1521;53.584;9.938;2022-07-06T07:18:15;3.80;;;1.53;;
3022;SDS011;1521;53.584;9.938;2022-07-06T07:20:41;4.60;;;1.63;;
3022;SDS011;1521;53.584;9.938;2022-07-06T07:23:06;5.70;;;1.97;;
3022;SDS011;1521;53.584;9.938;2022-07-06T07:25:32;10.00;;;1.60;;
3022;SDS011;1521;53.584;9.938;2022-07-06T07:27:58;8.73;;;1.80;;
3022;SDS011;1521;53.584;9.938;2022-07-06T07:30:24;5.73;;;1.70;;
3022;SDS011;1521;53.584;9.938;2022-07-06T07:32:49;3.43;;;1.40;;
3022;SDS011;1521;53.584;9.938;2022-07-06T07:35:15;1.93;;;1.30;;
3022;SDS011;1521;53.584;9.938;2022-07-06T07:37:41;1.47;;;0.90;;
3022;SDS011;1521;53.584;9.938;2022-07-06T07:40:06;1.63;;;1.10;;
3022;SDS011;1521;53.584;9.938;2022-07-06T07:42:32;5.40;;;1.10;;
3022;SDS011;1521;53.584;9.938;2022-07-06T07:44:58;8.97;;;1.20;;
3022;SDS011;1521;53.584;9.938;2022-07-06T07:47:24;6.73;;;1.00;;
3022;SDS011;1521;53.584;9.938;2022-07-06T07:49:50;2.80;;;1.40;;
3022;SDS011;1521;53.584;9.938;2022-07-06T07:52:15;2.90;;;1.50;;
3022;SDS011;1521;53.584;9.938;2022-07-06T07:54:41;3.80;;;1.20;;
3022;SDS011;1521;53.584;9.938;2022-07-06T07:57:07;3.17;;;1.10;;
3022;SDS011;1521;53.584;9.938;2022-07-06T07:59:32;3.60;;;1.30;;
3022;SDS011;1521;53.584;9.938;2022-07-06T08:01:58;1.87;;;1.10;;
3022;SDS011;1521;53.584;9.938;2022-07-06T08:04:24;4.13;;;1.57;;
3022;SDS011;1521;53.584;9.938;2022-07-06T08:06:50;8.13;;;1.67;;
3022;SDS011;1521;53.584;9.938;2022-07-06T08:09:15;3.77;;;1.30;;
3022;SDS011;1521;53.584;9.938;2022-07-06T08:11:42;2.80;;;1.67;;
3022;SDS011;1521;53.584;9.938;2022-07-06T08:14:08;2.43;;;1.20;;
3022;SDS011;1521;53.584;9.938;2022-07-06T08:16:34;2.90;;;1.10;;
3022;SDS011;1521;53.584;9.938;2022-07-06T08:19:01;3.30;;;1.07;;
3022;SDS011;1521;53.584;9.938;2022-07-06T08:21:26;3.57;;;2.17;;
3022;SDS011;1521;53.584;9.938;2022-07-06T08:23:52;2.57;;;1.30;;
3022;SDS011;1521;53.584;9.938;2022-07-06T08:26:19;4.77;;;1.30;;
3022;SDS011;1521;53.584;9.938;2022-07-06T08:28:47;2.40;;;1.27;;
3022;SDS011;1521;53.584;9.938;2022-07-06T08:31:12;4.70;;;1.30;;
3022;SDS011;1521;53.584;9.938;2022-07-06T08:33:38;3.70;;;1.23;;
3022;SDS011;1521;53.584;9.938;2022-07-06T08:36:04;4.20;;;1.50;;
3022;SDS011;1521;53.584;9.938;2022-07-06T08:38:30;2.97;;;1.53;;
3022;SDS011;1521;53.584;9.938;2022-07-06T08:40:55;2.37;;;1.40;;
3022;SDS011;1521;53.584;9.938;2022-07-06T08:43:22;3.13;;;1.27;;
3022;SDS011;1521;53.584;9.938;2022-07-06T08:45:49;4.10;;;1.43;;
3022;SDS011;1521;53.584;9.938;2022-07-06T08:48:18;7.23;;;1.30;;
3022;SDS011;1521;53.584;9.938;2022-07-06T08:50:44;3.57;;;1.57;;
3022;SDS011;1521;53.584;9.938;2022-07-06T08:53:10;7.20;;;1.50;;
3022;SDS011;1521;53.584;9.938;2022-07-06T08:55:36;3.13;;;1.37;;
3022;SDS011;1521;53.584;9.938;2022-07-06T08:58:01;1.90;;;1.20;;
3022;SDS011;1521;53.584;9.938;2022-07-06T09:00:29;6.67;;;1.90;;
3022;SDS011;1521;53.584;9.938;2022-07-06T09:02:56;2.23;;;1.40;;
3022;SDS011;1521;53.584;9.938;2022-07-06T09:05:23;2.10;;;1.30;;
3022;SDS011;1521;53.584;9.938;2022-07-06T09:07:49;4.27;;;1.70;;
3022;SDS011;1521;53.584;9.938;2022-07-06T09:10:17;5.60;;;2.80;;
3022;SDS011;1521;53.584;9.938;2022-07-06T09:12:44;5.43;;;1.90;;
3022;SDS011;1521;53.584;9.938;2022-07-06T09:15:10;3.33;;;1.67;;
3022;SDS011;1521;53.584;9.938;2022-07-06T09:17:39;4.20;;;1.90;;
3022;SDS011;1521;53.584;9.938;2022-07-06T09:20:06;4.87;;;1.50;;
3022;SDS011;1521;53.584;9.938;2022-07-06T09:22:33;3.73;;;1.87;;
3022;SDS011;1521;53.584;9.938;2022-07-06T09:25:06;5.43;;;1.90;;
3022;SDS011;1521;53.584;9.938;2022-07-06T09:27:37;4.33;;;3.30;;
3022;SDS011;1521;53.584;9.938;2022-07-06T09:30:04;3.00;;;1.57;;
3022;SDS011;1521;53.584;9.938;2022-07-06T09:32:32;3.03;;;1.70;;
3022;SDS011;1521;53.584;9.938;2022-07-06T09:35:06;6.10;;;1.37;;
3022;SDS011;1521;53.584;9.938;2022-07-06T09:37:33;2.63;;;1.20;;
3022;SDS011;1521;53.584;9.938;2022-07-06T09:39:59;1.83;;;1.20;;
3022;SDS011;1521;53.584;9.938;2022-07-06T09:42:25;5.40;;;1.33;;
3022;SDS011;1521;53.584;9.938;2022-07-06T09:44:51;1.90;;;1.00;;
3022;SDS011;1521;53.584;9.938;2022-07-06T09:47:18;6.03;;;1.00;;
3022;SDS011;1521;53.584;9.938;2022-07-06T09:49:44;5.30;;;1.30;;
3022;SDS011;1521;53.584;9.938;2022-07-06T09:52:11;2.43;;;0.80;;
3022;SDS011;1521;53.584;9.938;2022-07-06T09:54:40;3.83;;;1.33;;
3022;SDS011;1521;53.584;9.938;2022-07-06T09:57:06;2.20;;;1.00;;
3022;SDS011;1521;53.584;9.938;2022-07-06T09:59:32;2.80;;;1.33;;
3022;SDS011;1521;53.584;9.938;2022-07-06T10:02:01;3.63;;;1.63;;
3022;SDS011;1521;53.584;9.938;2022-07-06T10:04:28;0.90;;;0.80;;
3022;SDS011;1521;53.584;9.938;2022-07-06T10:06:55;1.60;;;0.90;;
3022;SDS011;1521;53.584;9.938;2022-07-06T10:09:22;7.17;;;1.13;;
3022;SDS011;1521;53.584;9.938;2022-07-06T10:11:56;1.33;;;0.87;;
3022;SDS011;1521;53.584;9.938;2022-07-06T10:14:24;3.33;;;1.03;;
3022;SDS011;1521;53.584;9.938;2022-07-06T10:16:52;3.90;;;1.13;;
3022;SDS011;1521;53.584;9.938;2022-07-06T10:19:24;1.63;;;1.40;;
3022;SDS011;1521;53.584;9.938;2022-07-06T10:21:50;3.97;;;1.27;;
3022;SDS011;1521;53.584;9.938;2022-07-06T10:24:17;1.53;;;1.00;;
3022;SDS011;1521;53.584;9.938;2022-07-06T10:26:44;3.17;;;1.20;;
3022;SDS011;1521;53.584;9.938;2022-07-06T10:29:11;1.17;;;0.90;;
3022;SDS011;1521;53.584;9.938;2022-07-06T10:31:40;2.77;;;0.90;;
3022;SDS011;1521;53.584;9.938;2022-07-06T10:34:10;2.33;;;1.13;;
3022;SDS011;1521;53.584;9.938;2022-07-06T10:36:38;3.03;;;1.10;;
3022;SDS011;1521;53.584;9.938;2022-07-06T10:39:04;4.40;;;1.10;;
3022;SDS011;1521;53.584;9.938;2022-07-06T10:41:50;2.50;;;0.90;;
3022;SDS011;1521;53.584;9.938;2022-07-06T10:44:21;1.90;;;0.87;;
3022;SDS011;1521;53.584;9.938;2022-07-06T10:49:22;3.70;;;0.97;;
3022;SDS011;1521;53.584;9.938;2022-07-06T10:51:48;3.87;;;1.13;;
3022;SDS011;1521;53.584;9.938;2022-07-06T10:54:15;3.83;;;1.13;;
3022;SDS011;1521;53.584;9.938;2022-07-06T10:56:43;1.50;;;1.03;;
3022;SDS011;1521;53.584;9.938;2022-07-06T10:59:17;4.77;;;1.30;;
3022;SDS011;1521;53.584;9.938;2022-07-06T11:02:19;3.17;;;1.30;;
3022;SDS011;1521;53.584;9.938;2022-07-06T11:04:39;3.00;;;1.33;;
3022;SDS011;1521;53.584;9.938;2022-07-06T11:07:09;4.87;;;1.50;;
3022;SDS011;1521;53.584;9.938;2022-07-06T11:09:42;3.00;;;1.30;;
3022;SDS011;1521;53.584;9.938;2022-07-06T11:12:22;2.33;;;1.30;;
3022;SDS011;1521;53.584;9.938;2022-07-06T11:14:49;8.53;;;1.40;;
3022;SDS011;1521;53.584;9.938;2022-07-06T11:17:16;4.03;;;1.10;;
3022;SDS011;1521;53.584;9.938;2022-07-06T11:20:15;2.30;;;1.10;;
3022;SDS011;1521;53.584;9.938;2022-07-06T11:22:36;2.50;;;1.10;;
3022;SDS011;1521;53.584;9.938;2022-07-06T11:25:03;3.43;;;1.00;;
3022;SDS011;1521;53.584;9.938;2022-07-06T11:27:30;2.90;;;1.00;;
3022;SDS011;1521;53.584;9.938;2022-07-06T11:29:56;3.53;;;1.10;;
3022;SDS011;1521;53.584;9.938;2022-07-06T11:32:27;2.83;;;1.00;;
3022;SDS011;1521;53.584;9.938;2022-07-06T11:34:53;2.70;;;1.10;;
3022;SDS011;1521;53.584;9.938;2022-07-06T11:37:19;1.40;;;0.90;;
3022;SDS011;1521;53.584;9.938;2022-07-06T11:39:46;4.13;;;1.00;;
3022;SDS011;1521;53.584;9.938;2022-07-06T11:42:13;2.80;;;1.07;;
3022;SDS011;1521;53.584;9.938;2022-07-06T11:44:40;3.83;;;1.00;;
3022;SDS011;1521;53.584;9.938;2022-07-06T11:47:07;5.13;;;1.37;;
3022;SDS011;1521;53.584;9.938;2022-07-06T11:49:34;6.13;;;1.23;;
3022;SDS011;1521;53.584;9.938;2022-07-06T11:52:05;3.67;;;1.10;;
3022;SDS011;1521;53.584;9.938;2022-07-06T11:54:35;5.90;;;1.20;;
3022;SDS011;1521;53.584;9.938;2022-07-06T11:57:01;2.30;;;0.93;;
3022;SDS011;1521;53.584;9.938;2022-07-06T11:59:32;4.83;;;1.13;;
3022;SDS011;1521;53.584;9.938;2022-07-06T12:04:39;7.73;;;1.17;;
3022;SDS011;1521;53.584;9.938;2022-07-06T12:07:13;3.20;;;1.00;;
3022;SDS011;1521;53.584;9.938;2022-07-06T12:09:41;4.50;;;1.10;;
3022;SDS011;1521;53.584;9.938;2022-07-06T12:12:10;5.73;;;1.00;;
3022;SDS011;1521;53.584;9.938;2022-07-06T12:14:37;4.13;;;1.20;;
3022;SDS011;1521;53.584;9.938;2022-07-06T12:17:04;1.70;;;0.83;;
3022;SDS011;1521;53.584;9.938;2022-07-06T12:19:32;2.20;;;0.80;;
3022;SDS011;1521;53.584;9.938;2022-07-06T12:21:58;1.67;;;0.90;;
3022;SDS011;1521;53.584;9.938;2022-07-06T12:24:27;2.40;;;0.80;;
3022;SDS011;1521;53.584;9.938;2022-07-06T12:26:55;6.10;;;1.00;;
3022;SDS011;1521;53.584;9.938;2022-07-06T12:29:21;1.10;;;0.80;;
3022;SDS011;1521;53.584;9.938;2022-07-06T12:34:23;1.60;;;0.80;;
3022;SDS011;1521;53.584;9.938;2022-07-06T12:36:58;4.00;;;0.90;;
3022;SDS011;1521;53.584;9.938;2022-07-06T12:39:30;5.40;;;0.83;;
3022;SDS011;1521;53.584;9.938;2022-07-06T12:42:01;6.20;;;0.90;;
3022;SDS011;1521;53.584;9.938;2022-07-06T12:44:28;3.67;;;1.07;;
3022;SDS011;1521;53.584;9.938;2022-07-06T12:47:04;3.63;;;0.90;;
3022;SDS011;1521;53.584;9.938;2022-07-06T12:49:31;3.97;;;0.90;;
3022;SDS011;1521;53.584;9.938;2022-07-06T12:51:59;2.40;;;0.83;;
3022;SDS011;1521;53.584;9.938;2022-07-06T12:54:36;2.10;;;0.80;;
3022;SDS011;1521;53.584;9.938;2022-07-06T12:57:10;3.43;;;1.00;;
3022;SDS011;1521;53.584;9.938;2022-07-06T12:59:41;2.27;;;1.17;;
3022;SDS011;1521;53.584;9.938;2022-07-06T13:02:31;4.10;;;0.97;;
3022;SDS011;1521;53.584;9.938;2022-07-06T13:07:24;2.70;;;0.80;;
3022;SDS011;1521;53.584;9.938;2022-07-06T13:09:51;5.70;;;0.90;;
3022;SDS011;1521;53.584;9.938;2022-07-06T13:12:17;5.63;;;1.30;;
3022;SDS011;1521;53.584;9.938;2022-07-06T13:14:43;8.13;;;1.20;;
3022;SDS011;1521;53.584;9.938;2022-07-06T13:17:08;3.07;;;0.80;;
3022;SDS011;1521;53.584;9.938;2022-07-06T13:19:34;1.23;;;0.70;;
3022;SDS011;1521;53.584;9.938;2022-07-06T13:21:59;4.20;;;1.00;;
3022;SDS011;1521;53.584;9.938;2022-07-06T13:24:25;4.90;;;0.80;;
3022;SDS011;1521;53.584;9.938;2022-07-06T13:26:53;2.83;;;1.00;;
3022;SDS011;1521;53.584;9.938;2022-07-06T13:29:19;1.70;;;0.73;;
3022;SDS011;1521;53.584;9.938;2022-07-06T13:31:44;4.67;;;1.00;;
3022;SDS011;1521;53.584;9.938;2022-07-06T13:34:10;4.13;;;0.80;;
3022;SDS011;1521;53.584;9.938;2022-07-06T13:36:35;4.93;;;0.90;;
3022;SDS011;1521;53.584;9.938;2022-07-06T13:39:02;5.97;;;1.13;;
3022;SDS011;1521;53.584;9.938;2022-07-06T13:41:28;3.17;;;0.90;;
3022;SDS011;1521;53.584;9.938;2022-07-06T13:43:54;2.93;;;0.70;;
3022;SDS011;1521;53.584;9.938;2022-07-06T13:46:20;0.80;;;0.60;;
3022;SDS011;1521;53.584;9.938;2022-07-06T13:48:46;4.40;;;0.80;;
3022;SDS011;1521;53.584;9.938;2022-07-06T13:51:12;2.43;;;0.73;;
3022;SDS011;1521;53.584;9.938;2022-07-06T13:53:38;5.50;;;0.83;;
3022;SDS011;1521;53.584;9.938;2022-07-06T13:56:04;2.80;;;0.80;;
3022;SDS011;1521;53.584;9.938;2022-07-06T13:58:30;1.97;;;0.70;;
3022;SDS011;1521;53.584;9.938;2022-07-06T14:00:56;5.90;;;0.80;;
3022;SDS011;1521;53.584;9.938;2022-07-06T14:03:22;3.73;;;0.70;;
3022;SDS011;1521;53.584;9.938;2022-07-06T14:05:52;1.93;;;0.60;;
3022;SDS011;1521;53.584;9.938;2022-07-06T14:08:19;3.50;;;1.00;;
3022;SDS011;1521;53.584;9.938;2022-07-06T14:10:45;2.60;;;0.77;;
3022;SDS011;1521;53.584;9.938;2022-07-06T14:13:11;3.43;;;0.73;;
3022;SDS011;1521;53.584;9.938;2022-07-06T14:15:36;0.80;;;0.70;;
3022;SDS011;1521;53.584;9.938;2022-07-06T14:18:02;5.07;;;1.10;;
3022;SDS011;1521;53.584;9.938;2022-07-06T14:20:28;2.53;;;0.77;;
3022;SDS011;1521;53.584;9.938;2022-07-06T14:22:53;2.63;;;1.00;;
3022;SDS011;1521;53.584;9.938;2022-07-06T14:25:19;3.43;;;1.00;;
3022;SDS011;1521;53.584;9.938;2022-07-06T14:27:45;4.10;;;1.10;;
3022;SDS011;1521;53.584;9.938;2022-07-06T14:30:10;5.37;;;1.10;;
3022;SDS011;1521;53.584;9.938;2022-07-06T14:32:36;4.00;;;0.80;;
3022;SDS011;1521;53.584;9.938;2022-07-06T14:35:02;2.50;;;0.70;;
3022;SDS011;1521;53.584;9.938;2022-07-06T14:37:28;2.23;;;0.80;;
3022;SDS011;1521;53.584;9.938;2022-07-06T14:39:53;1.80;;;0.80;;
3022;SDS011;1521;53.584;9.938;2022-07-06T14:42:19;4.27;;;0.80;;
3022;SDS011;1521;53.584;9.938;2022-07-06T14:44:44;3.70;;;0.83;;
3022;SDS011;1521;53.584;9.938;2022-07-06T14:47:10;4.70;;;1.00;;
3022;SDS011;1521;53.584;9.938;2022-07-06T14:49:35;2.50;;;0.70;;
3022;SDS011;1521;53.584;9.938;2022-07-06T14:52:02;1.63;;;0.80;;
3022;SDS011;1521;53.584;9.938;2022-07-06T14:54:28;2.60;;;0.70;;
3022;SDS011;1521;53.584;9.938;2022-07-06T14:56:54;1.87;;;0.70;;
3022;SDS011;1521;53.584;9.938;2022-07-06T14:59:19;2.20;;;0.80;;
3022;SDS011;1521;53.584;9.938;2022-07-06T15:01:45;3.77;;;0.77;;
3022;SDS011;1521;53.584;9.938;2022-07-06T15:04:11;2.80;;;0.97;;
3022;SDS011;1521;53.584;9.938;2022-07-06T15:06:36;4.57;;;1.10;;
3022;SDS011;1521;53.584;9.938;2022-07-06T15:09:02;2.50;;;0.80;;
3022;SDS011;1521;53.584;9.938;2022-07-06T15:11:32;3.57;;;1.00;;
3022;SDS011;1521;53.584;9.938;2022-07-06T15:13:58;2.50;;;0.93;;
3022;SDS011;1521;53.584;9.938;2022-07-06T15:16:24;2.40;;;0.73;;
3022;SDS011;1521;53.584;9.938;2022-07-06T15:18:50;4.20;;;0.87;;
3022;SDS011;1521;53.584;9.938;2022-07-06T15:21:16;7.17;;;1.00;;
3022;SDS011;1521;53.584;9.938;2022-07-06T15:23:42;1.70;;;0.80;;